Time;durP1;ratioP1;P1;durP2;ratioP2;P2;SDS_P1;SDS_P2;PMS_P1;PMS_P2;Temp;Humidity;BMP_temperature;BMP_pressure;BME280_temperature;BME280_humidity;BME280_pressure;Samples;Min_cycle;Max_cycle;Signal;HPM_P1;HPM_P2
2023/08/05 06:00:39;;;;;;;13.23;3.75;;;;;;;;;;5786732;23;20051;-87
2023/08/05 06:03:05;;;;;;;13.15;3.53;;;;;;;;;;4925544;29;20416;-82
2023/08/05 06:05:31;;;;;;;7.03;3.28;;;;;;;;;;4915590;29;20420;-89
2023/08/05 06:07:56;;;;;;;10.15;3.47;;;;;;;;;;4905052;29;20048;-88
2023/08/05 06:10:21;;;;;;;6.80;3.28;;;;;;;;;;4923613;29;20044;-88
2023/08/05 06:12:47;;;;;;;12.43;2.95;;;;;;;;;;4916269;29;20045;-88
2023/08/05 06:15:12;;;;;;;10.32;3.38;;;;;;;;;;4930796;29;20094;-87
2023/08/05 06:17:39;;;;;;;6.32;2.97;;;;;;;;;;4929443;29;20417;-87
2023/08/05 06:20:05;;;;;;;9.75;3.15;;;;;;;;;;4917429;29;20059;-87
2023/08/05 06:22:31;;;;;;;10.30;3.10;;;;;;;;;;4934327;29;20051;-89
2023/08/05 06:24:56;;;;;;;7.25;2.35;;;;;;;;;;4924460;29;20424;-87
2023/08/05 06:27:22;;;;;;;9.07;2.65;;;;;;;;;;4914803;29;20505;-88
2023/08/05 06:29:47;;;;;;;9.05;2.53;;;;;;;;;;4919488;29;20047;-87
2023/08/05 06:32:12;;;;;;;6.72;2.47;;;;;;;;;;4930423;29;20044;-88
2023/08/05 06:34:38;;;;;;;9.25;2.10;;;;;;;;;;4926006;29;20063;-89
2023/08/05 06:37:03;;;;;;;13.18;3.58;;;;;;;;;;4916218;29;20120;-88
2023/08/05 06:39:32;;;;;;;6.30;2.13;;;;;;;;;;4927540;29;20134;-89
2023/08/05 06:41:58;;;;;;;9.38;2.70;;;;;;;;;;4934221;29;20044;-90
2023/08/05 06:44:23;;;;;;;13.35;2.88;;;;;;;;;;4934180;29;20058;-93
2023/08/05 06:46:49;;;;;;;10.40;2.63;;;;;;;;;;4929809;29;20050;-88
2023/08/05 06:49:14;;;;;;;12.07;2.90;;;;;;;;;;4928528;29;20423;-88
2023/08/05 06:51:40;;;;;;;11.50;2.63;;;;;;;;;;4926435;29;20052;-90
2023/08/05 06:54:06;;;;;;;9.88;2.50;;;;;;;;;;4919742;29;20509;-89
2023/08/05 06:56:31;;;;;;;10.90;2.45;;;;;;;;;;4929348;29;20090;-89
2023/08/05 06:58:57;;;;;;;10.35;2.60;;;;;;;;;;4926210;29;20429;-87
2023/08/05 07:01:23;;;;;;;9.85;2.60;;;;;;;;;;4902509;29;20056;-85
2023/08/05 07:03:49;;;;;;;6.57;2.00;;;;;;;;;;4916036;29;20519;-86
2023/08/05 07:06:14;;;;;;;7.88;2.13;;;;;;;;;;4926130;29;20119;-90
2023/08/05 07:08:40;;;;;;;8.82;2.20;;;;;;;;;;4930229;29;20048;-88
2023/08/05 07:11:05;;;;;;;8.80;2.22;;;;;;;;;;4917619;29;20119;-88
2023/08/05 07:13:31;;;;;;;12.95;3.08;;;;;;;;;;4921059;29;20276;-88
2023/08/05 07:16:03;;;;;;;7.55;2.25;;;;;;;;;;4935025;29;20579;-88
2023/08/05 07:18:31;;;;;;;12.07;2.42;;;;;;;;;;4938449;29;20063;-89
2023/08/05 07:20:57;;;;;;;14.32;2.67;;;;;;;;;;4937850;29;20040;-91
2023/08/05 07:23:24;;;;;;;7.85;2.17;;;;;;;;;;4921892;29;20048;-88
2023/08/05 07:25:50;;;;;;;5.10;1.77;;;;;;;;;;4926622;29;20047;-92
2023/08/05 07:28:15;;;;;;;7.15;1.60;;;;;;;;;;4928898;29;20048;-92
2023/08/05 07:30:40;;;;;;;6.18;1.95;;;;;;;;;;4933273;29;20051;-93
2023/08/05 07:33:09;;;;;;;9.75;2.22;;;;;;;;;;4931432;29;20040;-89
2023/08/05 07:35:35;;;;;;;10.57;2.40;;;;;;;;;;4915975;29;20039;-88
2023/08/05 07:38:04;;;;;;;14.80;2.88;;;;;;;;;;4920353;29;20063;-92
2023/08/05 07:40:30;;;;;;;11.30;3.50;;;;;;;;;;4925931;29;20146;-90
2023/08/05 07:42:56;;;;;;;13.35;3.00;;;;;;;;;;4927917;29;20146;-88
2023/08/05 07:45:21;;;;;;;18.63;3.63;;;;;;;;;;4919631;29;20828;-88
2023/08/05 07:47:47;;;;;;;16.90;3.45;;;;;;;;;;4916126;29;20054;-88
2023/08/05 07:50:21;;;;;;;20.23;3.70;;;;;;;;;;4925558;29;20072;-86
2023/08/05 07:52:46;;;;;;;11.88;2.33;;;;;;;;;;4917906;29;20447;-88
2023/08/05 07:55:12;;;;;;;10.85;2.35;;;;;;;;;;4929640;29;20048;-88
2023/08/05 07:57:40;;;;;;;9.55;1.75;;;;;;;;;;4921901;29;20087;-86
2023/08/05 08:00:12;;;;;;;6.55;2.08;;;;;;;;;;4920406;29;20054;-87
2023/08/05 08:02:38;;;;;;;5.88;1.23;;;;;;;;;;4926775;29;20048;-88
2023/08/05 08:05:05;;;;;;;3.75;0.90;;;;;;;;;;4929943;29;20742;-87
2023/08/05 08:07:31;;;;;;;5.72;1.27;;;;;;;;;;4929057;29;20059;-87
2023/08/05 08:09:56;;;;;;;7.20;1.40;;;;;;;;;;4911151;29;20079;-86
2023/08/05 08:12:22;;;;;;;12.43;1.52;;;;;;;;;;4920590;29;20387;-87
2023/08/05 08:14:47;;;;;;;13.07;1.98;;;;;;;;;;4929012;29;20040;-88
2023/08/05 08:17:12;;;;;;;16.38;2.75;;;;;;;;;;4927622;29;20535;-86
2023/08/05 08:19:38;;;;;;;15.52;2.30;;;;;;;;;;4927390;29;20047;-86
2023/08/05 08:22:03;;;;;;;22.27;2.80;;;;;;;;;;4927026;29;20141;-82
2023/08/05 08:24:29;;;;;;;22.27;3.50;;;;;;;;;;4926640;29;20051;-84
2023/08/05 08:26:54;;;;;;;26.35;3.58;;;;;;;;;;4925108;29;20043;-85
2023/08/05 08:29:19;;;;;;;29.77;4.15;;;;;;;;;;4925782;29;20449;-85
2023/08/05 08:31:45;;;;;;;32.72;4.95;;;;;;;;;;4929795;29;20135;-86
2023/08/05 08:34:10;;;;;;;32.70;5.28;;;;;;;;;;4928978;29;20048;-85
2023/08/05 08:36:35;;;;;;;31.85;5.15;;;;;;;;;;4929457;29;20988;-86
2023/08/05 08:39:01;;;;;;;35.00;5.15;;;;;;;;;;4922184;29;20106;-86
2023/08/05 08:41:28;;;;;;;38.95;5.32;;;;;;;;;;4928544;29;20048;-85
2023/08/05 08:43:54;;;;;;;27.63;5.35;;;;;;;;;;4930028;29;20047;-89
2023/08/05 08:46:20;;;;;;;39.80;5.43;;;;;;;;;;4928750;29;20052;-86
2023/08/05 08:48:48;;;;;;;37.83;5.85;;;;;;;;;;4929094;29;20062;-87
2023/08/05 08:51:17;;;;;;;43.97;5.88;;;;;;;;;;4928859;29;20143;-88
2023/08/05 08:53:43;;;;;;;43.15;6.32;;;;;;;;;;4929130;29;20040;-88
2023/08/05 08:56:09;;;;;;;46.17;6.10;;;;;;;;;;4928557;29;20048;-86
2023/08/05 08:58:35;;;;;;;40.25;5.78;;;;;;;;;;4928097;29;20519;-87
2023/08/05 09:01:03;;;;;;;38.00;5.38;;;;;;;;;;4928689;29;20090;-87
2023/08/05 09:03:30;;;;;;;38.90;6.22;;;;;;;;;;4927981;29;20106;-85
2023/08/05 09:05:56;;;;;;;36.97;5.60;;;;;;;;;;4927924;29;20059;-86
2023/08/05 09:08:22;;;;;;;41.83;5.70;;;;;;;;;;4927884;29;20103;-86
2023/08/05 09:10:47;;;;;;;35.33;5.50;;;;;;;;;;4928448;29;20048;-88
2023/08/05 09:13:16;;;;;;;41.92;6.45;;;;;;;;;;4915937;29;20421;-87
2023/08/05 09:15:43;;;;;;;35.83;4.82;;;;;;;;;;4906765;29;20059;-86
2023/08/05 09:18:08;;;;;;;35.65;5.53;;;;;;;;;;4928330;29;20130;-88
2023/08/05 09:20:35;;;;;;;43.13;6.47;;;;;;;;;;4899845;29;20139;-92
2023/08/05 09:23:03;;;;;;;30.13;5.40;;;;;;;;;;4919661;29;20092;-90
2023/08/05 09:25:30;;;;;;;27.23;5.50;;;;;;;;;;4917934;29;20489;-91
2023/08/05 09:27:56;;;;;;;31.23;4.43;;;;;;;;;;4920709;29;20050;-89
2023/08/05 09:30:23;;;;;;;26.23;4.22;;;;;;;;;;4927028;29;20052;-86
2023/08/05 09:32:48;;;;;;;35.67;6.25;;;;;;;;;;4928288;29;20110;-88
2023/08/05 09:35:15;;;;;;;33.05;5.10;;;;;;;;;;4928123;29;20043;-87
2023/08/05 09:37:49;;;;;;;35.25;4.97;;;;;;;;;;4929664;29;20118;-91
2023/08/05 09:40:25;;;;;;;43.13;6.88;;;;;;;;;;4928466;29;20135;-89
2023/08/05 09:43:03;;;;;;;37.60;5.53;;;;;;;;;;4928259;29;20047;-88
2023/08/05 09:45:30;;;;;;;34.92;5.50;;;;;;;;;;4926291;29;20438;-87
2023/08/05 09:48:04;;;;;;;37.80;4.90;;;;;;;;;;4917157;29;20052;-87
2023/08/05 09:50:32;;;;;;;36.17;6.93;;;;;;;;;;4927836;29;20496;-90
2023/08/05 09:53:02;;;;;;;43.53;7.32;;;;;;;;;;4920373;29;20115;-91
2023/08/05 09:55:28;;;;;;;37.63;6.43;;;;;;;;;;4929490;29;20043;-91
2023/08/05 09:57:54;;;;;;;43.72;6.82;;;;;;;;;;4928165;29;20050;-94
2023/08/05 10:00:20;;;;;;;43.10;7.57;;;;;;;;;;4923867;29;20059;-89
2023/08/05 10:02:46;;;;;;;47.22;7.45;;;;;;;;;;4927806;29;20044;-88
2023/08/05 10:05:12;;;;;;;46.17;6.97;;;;;;;;;;4919801;29;20051;-92
2023/08/05 10:07:40;;;;;;;45.58;6.65;;;;;;;;;;4920508;29;20111;-92
2023/08/05 10:10:08;;;;;;;46.80;5.93;;;;;;;;;;4923788;29;20048;-87
2023/08/05 10:13:01;;;;;;;44.70;6.30;;;;;;;;;;4919985;29;20060;-90
2023/08/05 10:15:31;;;;;;;42.13;6.70;;;;;;;;;;4927217;29;20051;-91
2023/08/05 10:17:57;;;;;;;35.92;5.53;;;;;;;;;;4920317;29;20051;-90
2023/08/05 10:20:22;;;;;;;41.70;7.38;;;;;;;;;;4914029;29;20043;-87
2023/08/05 10:23:05;;;;;;;39.35;6.38;;;;;;;;;;4922832;29;20079;-88
2023/08/05 10:25:44;;;;;;;48.15;6.70;;;;;;;;;;4926814;29;20046;-89
2023/08/05 10:28:38;;;;;;;38.03;5.63;;;;;;;;;;4922428;29;20044;-87
2023/08/05 10:31:22;;;;;;;41.53;6.40;;;;;;;;;;4920725;29;20351;-90
2023/08/05 10:34:16;;;;;;;36.63;5.85;;;;;;;;;;4909394;29;20051;-88
2023/08/05 10:36:48;;;;;;;37.83;5.53;;;;;;;;;;4913410;29;20100;-89
2023/08/05 10:39:42;;;;;;;39.97;5.90;;;;;;;;;;4916544;29;20138;-86
2023/08/05 10:42:29;;;;;;;35.47;5.78;;;;;;;;;;4922014;29;20054;-87
2023/08/05 10:44:54;;;;;;;41.35;6.10;;;;;;;;;;4917162;29;20508;-89
2023/08/05 10:47:23;;;;;;;45.60;5.75;;;;;;;;;;4925488;29;20051;-85
2023/08/05 10:49:59;;;;;;;43.75;5.38;;;;;;;;;;4916016;29;20739;-86
2023/08/05 10:52:25;;;;;;;35.60;5.60;;;;;;;;;;4922680;29;20047;-88
2023/08/05 10:54:51;;;;;;;42.33;6.53;;;;;;;;;;4909526;29;20043;-88
2023/08/05 10:57:39;;;;;;;38.47;6.15;;;;;;;;;;4914353;29;20044;-87
2023/08/05 11:00:07;;;;;;;34.15;5.53;;;;;;;;;;4918013;29;20580;-88
2023/08/05 11:02:33;;;;;;;39.80;5.35;;;;;;;;;;4911496;29;21526;-86
2023/08/05 11:05:17;;;;;;;31.05;4.95;;;;;;;;;;4915538;29;20051;-88
2023/08/05 11:07:43;;;;;;;29.42;5.28;;;;;;;;;;4918460;29;20063;-89
2023/08/05 11:10:09;;;;;;;40.17;5.97;;;;;;;;;;4925137;29;20163;-86
2023/08/05 11:12:38;;;;;;;32.55;5.53;;;;;;;;;;4926385;29;20106;-86
2023/08/05 11:15:03;;;;;;;;;;;;;;;;;;4907633;29;20041;-89
2023/08/05 11:17:29;;;;;;;33.00;5.60;;;;;;;;;;4915152;29;19927;-89
2023/08/05 11:19:56;;;;;;;37.70;5.93;;;;;;;;;;4919201;29;20090;-87
2023/08/05 11:22:27;;;;;;;34.67;6.05;;;;;;;;;;4914791;29;20428;-89
2023/08/05 11:24:59;;;;;;;32.05;6.15;;;;;;;;;;4907709;29;20513;-87
2023/08/05 11:27:34;;;;;;;39.10;6.18;;;;;;;;;;4912808;29;20078;-87
2023/08/05 11:30:20;;;;;;;34.83;5.60;;;;;;;;;;4925275;29;20040;-86
2023/08/05 11:32:52;;;;;;;38.45;6.25;;;;;;;;;;4924799;29;20102;-87
2023/08/05 11:35:17;;;;;;;33.30;5.93;;;;;;;;;;4912810;29;20470;-87
2023/08/05 11:37:43;;;;;;;30.65;5.38;;;;;;;;;;4916744;29;20040;-87
2023/08/05 11:40:08;;;;;;;31.98;5.82;;;;;;;;;;4920338;29;20105;-87
2023/08/05 11:42:36;;;;;;;34.92;5.68;;;;;;;;;;4923417;29;20048;-87
2023/08/05 11:45:02;;;;;;;32.97;5.95;;;;;;;;;;4923218;29;20048;-87
2023/08/05 11:47:27;;;;;;;36.33;5.90;;;;;;;;;;4925806;29;20096;-87
2023/08/05 11:49:54;;;;;;;41.13;6.03;;;;;;;;;;4925954;29;20047;-87
2023/08/05 11:52:20;;;;;;;43.40;6.18;;;;;;;;;;4925371;29;20048;-88
2023/08/05 11:54:56;;;;;;;39.50;5.60;;;;;;;;;;4923943;29;20050;-87
2023/08/05 11:57:22;;;;;;;32.67;5.47;;;;;;;;;;4924556;29;20143;-85
2023/08/05 11:59:48;;;;;;;35.65;6.43;;;;;;;;;;4922840;29;20047;-85
2023/08/05 12:02:14;;;;;;;30.45;5.28;;;;;;;;;;4914706;29;20051;-87
2023/08/05 12:04:48;;;;;;;31.98;6.03;;;;;;;;;;4915484;29;20058;-86
2023/08/05 12:07:15;;;;;;;36.85;5.88;;;;;;;;;;4928986;29;20044;-85
2023/08/05 12:09:41;;;;;;;40.30;6.20;;;;;;;;;;4918391;29;20039;-86
2023/08/05 12:12:28;;;;;;;39.47;6.57;;;;;;;;;;4925131;29;20127;-87
2023/08/05 12:15:11;;;;;;;44.08;6.63;;;;;;;;;;4929409;29;20130;-86
2023/08/05 12:17:37;;;;;;;41.30;6.47;;;;;;;;;;4928550;29;20436;-85
2023/08/05 12:20:07;;;;;;;39.00;6.45;;;;;;;;;;4928786;29;20052;-84
2023/08/05 12:22:33;;;;;;;34.60;5.78;;;;;;;;;;4928559;29;20040;-86
2023/08/05 12:24:58;;;;;;;43.20;6.07;;;;;;;;;;4906561;29;20543;-84
2023/08/05 12:27:24;;;;;;;38.08;5.70;;;;;;;;;;4928203;29;20599;-84
2023/08/05 12:29:49;;;;;;;36.72;5.97;;;;;;;;;;4911467;29;20508;-86
2023/08/05 12:32:14;;;;;;;44.03;5.78;;;;;;;;;;4928612;29;20063;-86
2023/08/05 12:34:40;;;;;;;36.97;6.88;;;;;;;;;;4914858;29;20050;-87
2023/08/05 12:37:06;;;;;;;40.10;5.93;;;;;;;;;;4921089;29;20046;-84
2023/08/05 12:39:31;;;;;;;39.20;6.20;;;;;;;;;;4928437;29;20043;-84
2023/08/05 12:41:56;;;;;;;41.75;6.63;;;;;;;;;;4928713;29;20055;-84
2023/08/05 12:44:22;;;;;;;41.92;6.68;;;;;;;;;;4906647;29;20114;-85
2023/08/05 12:46:47;;;;;;;34.85;6.90;;;;;;;;;;4927155;29;20070;-85
2023/08/05 12:49:12;;;;;;;40.10;5.93;;;;;;;;;;4924668;29;20044;-85
2023/08/05 12:51:38;;;;;;;40.92;5.40;;;;;;;;;;4928727;29;20051;-92
2023/08/05 12:54:03;;;;;;;26.98;5.28;;;;;;;;;;4915773;29;20103;-86
2023/08/05 12:56:28;;;;;;;36.28;5.80;;;;;;;;;;4911723;29;20102;-85
2023/08/05 12:58:54;;;;;;;31.05;5.38;;;;;;;;;;4907856;29;20052;-85
2023/08/05 13:01:20;;;;;;;39.55;6.03;;;;;;;;;;4926447;29;20055;-87
2023/08/05 13:03:45;;;;;;;37.70;6.18;;;;;;;;;;4926864;29;20078;-85
2023/08/05 13:06:11;;;;;;;31.95;5.38;;;;;;;;;;4921253;29;20040;-85
2023/08/05 13:08:37;;;;;;;39.97;5.45;;;;;;;;;;4931937;29;20048;-87
2023/08/05 13:11:02;;;;;;;32.60;5.72;;;;;;;;;;4931446;29;20182;-86
2023/08/05 13:13:27;;;;;;;40.80;5.68;;;;;;;;;;4922957;29;20040;-85
2023/08/05 13:15:53;;;;;;;30.88;4.55;;;;;;;;;;4932518;29;20564;-86
2023/08/05 13:18:18;;;;;;;44.75;5.65;;;;;;;;;;4934405;29;20060;-89
2023/08/05 13:20:44;;;;;;;36.53;5.47;;;;;;;;;;4918304;29;20409;-88
2023/08/05 13:23:09;;;;;;;40.42;6.78;;;;;;;;;;4933361;29;20055;-84
2023/08/05 13:25:34;;;;;;;37.17;6.20;;;;;;;;;;4934869;29;20386;-87
2023/08/05 13:28:00;;;;;;;37.40;5.93;;;;;;;;;;4927101;29;20050;-85
2023/08/05 13:30:25;;;;;;;28.95;4.80;;;;;;;;;;4933375;29;20511;-84
2023/08/05 13:32:52;;;;;;;38.65;5.47;;;;;;;;;;4930005;29;20111;-88
2023/08/05 13:35:17;;;;;;;29.05;5.03;;;;;;;;;;4925925;29;20044;-89
2023/08/05 13:37:43;;;;;;;35.78;6.13;;;;;;;;;;4910693;29;20099;-86
2023/08/05 13:40:09;;;;;;;29.27;5.40;;;;;;;;;;4926714;29;20108;-87
2023/08/05 13:42:34;;;;;;;34.90;5.47;;;;;;;;;;4923663;29;20169;-87
2023/08/05 13:44:59;;;;;;;30.35;5.85;;;;;;;;;;4927087;29;20070;-87
2023/08/05 13:47:25;;;;;;;30.92;5.53;;;;;;;;;;4927727;29;20075;-87
2023/08/05 13:49:50;;;;;;;39.05;5.50;;;;;;;;;;4927190;29;20125;-86
2023/08/05 13:52:16;;;;;;;30.45;4.60;;;;;;;;;;4928213;29;20675;-86
2023/08/05 13:54:41;;;;;;;29.77;4.55;;;;;;;;;;4908681;29;20052;-87
2023/08/05 13:57:06;;;;;;;23.77;4.07;;;;;;;;;;4924446;29;20048;-88
2023/08/05 13:59:32;;;;;;;25.98;4.00;;;;;;;;;;4921218;29;20044;-87
2023/08/05 14:01:57;;;;;;;30.58;4.95;;;;;;;;;;4922664;29;20067;-87
2023/08/05 14:04:23;;;;;;;24.88;4.50;;;;;;;;;;4928052;29;20051;-88
2023/08/05 14:06:48;;;;;;;35.25;5.35;;;;;;;;;;4921819;29;20055;-87
2023/08/05 14:09:14;;;;;;;33.05;4.13;;;;;;;;;;4914797;29;20139;-86
2023/08/05 14:11:39;;;;;;;27.65;4.93;;;;;;;;;;4909370;29;20519;-86
2023/08/05 14:14:05;;;;;;;25.38;3.72;;;;;;;;;;4908411;29;20047;-86
2023/08/05 14:16:30;;;;;;;22.13;3.78;;;;;;;;;;4909042;29;20048;-89
2023/08/05 14:18:56;;;;;;;19.90;4.05;;;;;;;;;;4918780;29;20516;-88
2023/08/05 14:21:22;;;;;;;25.70;4.47;;;;;;;;;;4925506;29;20094;-86
2023/08/05 14:23:48;;;;;;;28.88;3.65;;;;;;;;;;4917015;29;20043;-87
2023/08/05 14:26:13;;;;;;;16.17;2.72;;;;;;;;;;4910383;29;20044;-85
2023/08/05 14:28:39;;;;;;;21.15;3.60;;;;;;;;;;4899815;29;20072;-90
2023/08/05 14:31:05;;;;;;;19.95;2.92;;;;;;;;;;4911679;29;20062;-87
2023/08/05 14:33:30;;;;;;;21.10;3.25;;;;;;;;;;4907891;29;20044;-89
2023/08/05 14:35:55;;;;;;;19.83;3.03;;;;;;;;;;4925642;29;20058;-88
2023/08/05 14:38:21;;;;;;;19.77;2.97;;;;;;;;;;4906109;29;20135;-87
2023/08/05 14:40:46;;;;;;;19.25;2.80;;;;;;;;;;4919108;29;20054;-86
2023/08/05 14:43:12;;;;;;;17.00;2.78;;;;;;;;;;4926640;29;20044;-85
2023/08/05 14:45:38;;;;;;;20.67;3.35;;;;;;;;;;4926973;29;20063;-86
2023/08/05 14:48:04;;;;;;;19.15;3.10;;;;;;;;;;4910336;29;20043;-89
2023/08/05 14:50:29;;;;;;;17.83;3.13;;;;;;;;;;4926827;29;20055;-88
2023/08/05 14:52:54;;;;;;;21.80;3.20;;;;;;;;;;4926437;29;20539;-84
2023/08/05 14:55:20;;;;;;;26.35;3.15;;;;;;;;;;4930140;29;20066;-79
2023/08/05 14:57:47;;;;;;;20.85;3.47;;;;;;;;;;4916641;29;20095;-85
2023/08/05 15:00:13;;;;;;;19.73;3.28;;;;;;;;;;4928787;29;20048;-85
2023/08/05 15:02:38;;;;;;;22.30;3.25;;;;;;;;;;4932617;29;20052;-85
2023/08/05 15:05:04;;;;;;;23.17;3.17;;;;;;;;;;4932619;29;20072;-85
2023/08/05 15:07:30;;;;;;;24.15;3.10;;;;;;;;;;4932668;29;20063;-90
2023/08/05 15:09:55;;;;;;;14.60;2.90;;;;;;;;;;4915726;29;20046;-87
2023/08/05 15:12:20;;;;;;;18.05;3.25;;;;;;;;;;4930814;29;20048;-85
2023/08/05 15:14:46;;;;;;;15.50;3.08;;;;;;;;;;4932002;29;20605;-84
2023/08/05 15:17:11;;;;;;;22.13;3.05;;;;;;;;;;4931056;29;20040;-86
2023/08/05 15:19:36;;;;;;;18.08;3.00;;;;;;;;;;4933282;29;20100;-85
2023/08/05 15:22:02;;;;;;;18.55;2.97;;;;;;;;;;4931253;29;20059;-84
2023/08/05 15:24:27;;;;;;;22.85;3.25;;;;;;;;;;4918496;29;20051;-84
2023/08/05 15:26:52;;;;;;;23.90;3.85;;;;;;;;;;4894867;29;20051;-86
2023/08/05 15:29:18;;;;;;;18.77;2.88;;;;;;;;;;4911498;29;20074;-83
2023/08/05 15:31:44;;;;;;;20.08;3.30;;;;;;;;;;4916660;29;20039;-82
2023/08/05 15:34:09;;;;;;;22.73;3.15;;;;;;;;;;4935967;29;20520;-82
2023/08/05 15:36:34;;;;;;;15.43;3.10;;;;;;;;;;4936805;29;20058;-83
2023/08/05 15:39:00;;;;;;;18.05;2.92;;;;;;;;;;4937166;29;20035;-83
2023/08/05 15:41:25;;;;;;;17.63;3.20;;;;;;;;;;4935669;29;20524;-84
2023/08/05 15:43:52;;;;;;;20.10;2.90;;;;;;;;;;4934647;29;20050;-85
2023/08/05 15:46:18;;;;;;;19.50;3.75;;;;;;;;;;4934089;29;20523;-85
2023/08/05 15:48:43;;;;;;;23.58;3.47;;;;;;;;;;4934793;29;20071;-84
2023/08/05 15:51:09;;;;;;;23.52;2.97;;;;;;;;;;4934322;29;20044;-85
2023/08/05 15:53:34;;;;;;;27.45;3.72;;;;;;;;;;4934495;29;20258;-84
2023/08/05 15:56:00;;;;;;;23.75;3.20;;;;;;;;;;4934770;29;20039;-84
2023/08/05 15:58:27;;;;;;;21.27;3.63;;;;;;;;;;4935048;29;20051;-84
2023/08/05 16:01:19;;;;;;;23.65;3.97;;;;;;;;;;4919451;29;20055;-85
2023/08/05 16:03:44;;;;;;;21.98;3.35;;;;;;;;;;4913255;29;20074;-84
2023/08/05 16:06:11;;;;;;;24.55;3.55;;;;;;;;;;4899912;29;20071;-83
2023/08/05 16:08:39;;;;;;;20.45;2.92;;;;;;;;;;4917432;29;20116;-84
2023/08/05 16:11:10;;;;;;;21.80;3.33;;;;;;;;;;4916629;29;20047;-80
2023/08/05 16:13:36;;;;;;;15.27;2.97;;;;;;;;;;4917081;29;20056;-84
2023/08/05 16:16:12;;;;;;;16.98;3.15;;;;;;;;;;4916897;29;20341;-83
2023/08/05 16:18:38;;;;;;;19.23;2.78;;;;;;;;;;4900474;29;20050;-83
2023/08/05 16:21:09;;;;;;;14.45;2.97;;;;;;;;;;4916730;29;20044;-83
2023/08/05 16:23:35;;;;;;;19.05;2.65;;;;;;;;;;4916781;29;20048;-83
2023/08/05 16:26:06;;;;;;;19.55;2.95;;;;;;;;;;4917060;29;20051;-84
2023/08/05 16:28:31;;;;;;;13.82;2.60;;;;;;;;;;4916674;29;20044;-84
2023/08/05 16:30:57;;;;;;;15.02;2.95;;;;;;;;;;4917385;29;20490;-83
2023/08/05 16:33:22;;;;;;;18.13;2.78;;;;;;;;;;4931793;29;20568;-83
2023/08/05 16:35:47;;;;;;;16.95;3.05;;;;;;;;;;4935618;29;20039;-84
2023/08/05 16:38:13;;;;;;;15.32;2.88;;;;;;;;;;4935877;29;20119;-83
2023/08/05 16:40:38;;;;;;;17.55;2.70;;;;;;;;;;4935785;29;20539;-83
2023/08/05 16:43:04;;;;;;;20.05;3.25;;;;;;;;;;4934608;29;20066;-81
2023/08/05 16:45:29;;;;;;;20.27;2.75;;;;;;;;;;4935662;29;20044;-84
2023/08/05 16:47:54;;;;;;;14.50;2.58;;;;;;;;;;4935607;29;20504;-82
2023/08/05 16:50:20;;;;;;;15.68;2.80;;;;;;;;;;4935325;29;20044;-83
2023/08/05 16:52:45;;;;;;;16.30;2.67;;;;;;;;;;4935725;29;20040;-82
2023/08/05 16:55:11;;;;;;;17.95;2.78;;;;;;;;;;4934340;29;20039;-82
2023/08/05 16:57:36;;;;;;;18.10;2.63;;;;;;;;;;4935492;29;20052;-82
2023/08/05 17:00:02;;;;;;;12.30;2.45;;;;;;;;;;4924902;29;20517;-83
2023/08/05 17:02:27;;;;;;;18.73;3.05;;;;;;;;;;4915519;29;20055;-84
2023/08/05 17:04:54;;;;;;;18.80;3.17;;;;;;;;;;4916822;29;20450;-83
2023/08/05 17:07:19;;;;;;;12.30;2.13;;;;;;;;;;4915813;29;20044;-83
2023/08/05 17:09:45;;;;;;;16.23;2.63;;;;;;;;;;4915937;29;20044;-85
2023/08/05 17:12:10;;;;;;;18.67;3.17;;;;;;;;;;4915647;29;20108;-82
2023/08/05 17:14:36;;;;;;;18.42;3.22;;;;;;;;;;4916311;29;20489;-82
2023/08/05 17:17:01;;;;;;;19.38;2.90;;;;;;;;;;4916096;29;20446;-82
2023/08/05 17:19:26;;;;;;;29.08;4.30;;;;;;;;;;4915853;29;20076;-82
2023/08/05 17:21:52;;;;;;;25.95;4.35;;;;;;;;;;4916047;29;20123;-81
2023/08/05 17:24:17;;;;;;;23.45;3.70;;;;;;;;;;4915113;29;20052;-83
2023/08/05 17:26:42;;;;;;;23.52;3.47;;;;;;;;;;4916103;29;20040;-84
2023/08/05 17:29:08;;;;;;;16.85;3.00;;;;;;;;;;4915584;29;20460;-81
2023/08/05 17:31:33;;;;;;;19.40;3.15;;;;;;;;;;4918356;29;20560;-82
2023/08/05 17:33:59;;;;;;;21.27;3.05;;;;;;;;;;4935064;29;20139;-81
2023/08/05 17:36:24;;;;;;;16.77;2.85;;;;;;;;;;4934229;29;20130;-81
2023/08/05 17:38:49;;;;;;;18.15;3.28;;;;;;;;;;4934665;29;20408;-82
2023/08/05 17:41:15;;;;;;;13.90;3.17;;;;;;;;;;4933751;29;20047;-82
2023/08/05 17:43:40;;;;;;;21.75;2.95;;;;;;;;;;4934932;29;20036;-83
2023/08/05 17:46:07;;;;;;;22.30;3.78;;;;;;;;;;4934193;29;20046;-80
2023/08/05 17:48:33;;;;;;;23.20;3.70;;;;;;;;;;4934354;29;20432;-83
2023/08/05 17:51:00;;;;;;;23.95;3.80;;;;;;;;;;4934260;29;20102;-81
2023/08/05 17:53:26;;;;;;;30.02;4.72;;;;;;;;;;4931722;29;20051;-81
2023/08/05 17:55:51;;;;;;;29.27;5.03;;;;;;;;;;4923707;29;20052;-82
2023/08/05 17:58:20;;;;;;;30.05;6.20;;;;;;;;;;4924384;29;20136;-82
2023/08/05 18:00:48;;;;;;;26.25;4.88;;;;;;;;;;4925580;29;20066;-83
2023/08/05 18:03:14;;;;;;;31.60;4.78;;;;;;;;;;4923978;29;20039;-82
2023/08/05 18:05:39;;;;;;;37.17;5.18;;;;;;;;;;4924719;29;20044;-81
2023/08/05 18:08:05;;;;;;;33.08;5.03;;;;;;;;;;4922565;29;20397;-81
2023/08/05 18:10:32;;;;;;;37.00;5.85;;;;;;;;;;4925811;29;20083;-82
2023/08/05 18:12:57;;;;;;;26.38;4.32;;;;;;;;;;4933152;29;20035;-79
2023/08/05 18:15:23;;;;;;;31.83;5.13;;;;;;;;;;4931129;29;20098;-80
2023/08/05 18:17:49;;;;;;;36.42;5.32;;;;;;;;;;4927734;29;20625;-81
2023/08/05 18:20:14;;;;;;;26.77;4.68;;;;;;;;;;4926053;29;20496;-80
2023/08/05 18:22:40;;;;;;;29.48;4.28;;;;;;;;;;4926679;29;20094;-79
2023/08/05 18:25:05;;;;;;;31.50;4.75;;;;;;;;;;4924642;29;20055;-80
2023/08/05 18:27:31;;;;;;;21.58;3.83;;;;;;;;;;4923859;29;20075;-81
2023/08/05 18:29:57;;;;;;;30.10;4.05;;;;;;;;;;4925407;29;20044;-81
2023/08/05 18:32:22;;;;;;;28.65;4.28;;;;;;;;;;4923242;29;20823;-82
2023/08/05 18:34:48;;;;;;;25.90;3.97;;;;;;;;;;4919862;29;20444;-81
2023/08/05 18:37:13;;;;;;;29.00;4.40;;;;;;;;;;4925788;29;20044;-82
2023/08/05 18:39:39;;;;;;;21.42;3.53;;;;;;;;;;4908210;29;20568;-81
2023/08/05 18:42:04;;;;;;;29.90;5.15;;;;;;;;;;4924352;29;20135;-80
2023/08/05 18:44:30;;;;;;;25.92;3.95;;;;;;;;;;4922827;29;20063;-80
2023/08/05 18:46:55;;;;;;;23.45;4.13;;;;;;;;;;4906464;29;20062;-80
2023/08/05 18:49:21;;;;;;;27.52;4.45;;;;;;;;;;4919296;29;20432;-80
2023/08/05 18:51:46;;;;;;;29.02;4.47;;;;;;;;;;4924121;29;20047;-80
2023/08/05 18:54:11;;;;;;;25.77;4.15;;;;;;;;;;4924837;29;20047;-80
2023/08/05 18:56:37;;;;;;;27.35;4.40;;;;;;;;;;4924434;29;20048;-80
2023/08/05 18:59:02;;;;;;;25.63;3.67;;;;;;;;;;4922067;29;20048;-82
2023/08/05 19:01:28;;;;;;;23.15;3.97;;;;;;;;;;4920293;29;20130;-82
2023/08/05 19:03:53;;;;;;;23.00;3.67;;;;;;;;;;4926581;29;20036;-83
2023/08/05 19:06:18;;;;;;;27.00;4.05;;;;;;;;;;4926246;29;20088;-82
2023/08/05 19:08:44;;;;;;;18.98;4.00;;;;;;;;;;4930299;29;20051;-81
2023/08/05 19:11:16;;;;;;;27.27;4.20;;;;;;;;;;4919611;29;20084;-81
2023/08/05 19:13:41;;;;;;;22.08;4.10;;;;;;;;;;4911849;29;20044;-82
2023/08/05 19:16:07;;;;;;;27.98;4.20;;;;;;;;;;4929255;29;20046;-82
2023/08/05 19:18:35;;;;;;;25.85;4.07;;;;;;;;;;4930579;29;20059;-82
2023/08/05 19:21:08;;;;;;;19.63;4.17;;;;;;;;;;4930318;29;20442;-82
2023/08/05 19:23:34;;;;;;;26.23;3.40;;;;;;;;;;4930377;29;20508;-82
2023/08/05 19:26:04;;;;;;;21.98;3.42;;;;;;;;;;4930892;29;20055;-82
2023/08/05 19:28:29;;;;;;;26.88;3.90;;;;;;;;;;4911234;29;20131;-82
2023/08/05 19:30:56;;;;;;;27.42;4.40;;;;;;;;;;4917581;29;20610;-81
2023/08/05 19:33:21;;;;;;;23.50;4.03;;;;;;;;;;4929658;29;20505;-81
2023/08/05 19:35:46;;;;;;;25.60;4.07;;;;;;;;;;4929873;29;20043;-81
2023/08/05 19:38:12;;;;;;;27.25;4.35;;;;;;;;;;4929536;29;20423;-81
2023/08/05 19:40:37;;;;;;;23.50;3.90;;;;;;;;;;4929968;29;20047;-80
2023/08/05 19:43:03;;;;;;;30.70;4.03;;;;;;;;;;4912238;29;20443;-82
2023/08/05 19:45:29;;;;;;;28.70;5.10;;;;;;;;;;4929214;29;20050;-81
2023/08/05 19:47:54;;;;;;;31.80;4.18;;;;;;;;;;4929185;29;20432;-82
2023/08/05 19:50:20;;;;;;;25.38;4.82;;;;;;;;;;4929661;29;20048;-80
2023/08/05 19:52:45;;;;;;;26.88;4.10;;;;;;;;;;4929213;29;20043;-81
2023/08/05 19:55:11;;;;;;;30.17;4.45;;;;;;;;;;4929531;29;20071;-81
2023/08/05 19:57:38;;;;;;;23.35;4.20;;;;;;;;;;4922936;29;20043;-82
2023/08/05 20:00:06;;;;;;;29.92;4.72;;;;;;;;;;4920487;29;20091;-82
2023/08/05 20:02:31;;;;;;;28.02;4.22;;;;;;;;;;4922640;29;20103;-82
2023/08/05 20:04:56;;;;;;;30.98;4.25;;;;;;;;;;4923641;29;20048;-81
2023/08/05 20:07:22;;;;;;;36.10;5.68;;;;;;;;;;4919410;29;20394;-81
2023/08/05 20:09:47;;;;;;;27.17;4.55;;;;;;;;;;4924122;29;20099;-81
2023/08/05 20:12:13;;;;;;;29.85;4.95;;;;;;;;;;4924856;29;20062;-80
2023/08/05 20:14:38;;;;;;;24.90;4.03;;;;;;;;;;4927352;29;20110;-81
2023/08/05 20:17:04;;;;;;;31.30;4.63;;;;;;;;;;4918906;29;20512;-82
2023/08/05 20:19:29;;;;;;;33.83;4.75;;;;;;;;;;4928442;29;20048;-81
2023/08/05 20:21:56;;;;;;;30.60;4.40;;;;;;;;;;4928764;29;20036;-82
2023/08/05 20:24:22;;;;;;;30.50;5.63;;;;;;;;;;4922680;29;20431;-81
2023/08/05 20:26:47;;;;;;;32.72;4.68;;;;;;;;;;4928947;29;20504;-80
2023/08/05 20:29:13;;;;;;;31.77;3.95;;;;;;;;;;4927958;29;20126;-80